createdAt,value
2019-04-07T00:01:18.464Z,22.67
2019-04-07T00:03:48.334Z,20.83
2019-04-07T00:06:17.815Z,22.20
2019-04-07T00:08:47.528Z,23.50
2019-04-07T00:11:17.664Z,22.80
2019-04-07T00:13:47.167Z,22.90
2019-04-07T00:16:16.939Z,22.53
2019-04-07T00:18:47.044Z,22.43
2019-04-07T00:21:16.867Z,23.57
2019-04-07T00:23:46.322Z,22.60
2019-04-07T00:26:19.136Z,25.47
2019-04-07T00:28:49.804Z,24.03
2019-04-07T00:31:19.427Z,24.87
2019-04-07T00:33:48.893Z,25.10
2019-04-07T00:36:18.961Z,25.33
2019-04-07T00:38:48.924Z,25.43
2019-04-07T00:41:18.479Z,23.77
2019-04-07T00:43:48.061Z,23.77
2019-04-07T00:46:17.944Z,23.27
2019-04-07T00:48:47.499Z,24.23
2019-04-07T00:51:16.971Z,23.10
2019-04-07T00:53:46.468Z,23.83
2019-04-07T00:56:15.922Z,23.23
2019-04-07T00:58:45.703Z,23.73
2019-04-07T01:01:16.842Z,23.17
2019-04-07T01:03:46.296Z,23.80
2019-04-07T01:06:15.737Z,23.27
2019-04-07T01:08:45.694Z,24.30
2019-04-07T01:11:15.729Z,23.13
2019-04-07T01:13:45.274Z,23.57
2019-04-07T01:16:14.686Z,25.13
2019-04-07T01:18:44.234Z,23.70
2019-04-07T01:21:13.879Z,24.20
2019-04-07T01:23:43.639Z,23.87
2019-04-07T01:26:13.807Z,23.60
2019-04-07T01:28:46.296Z,23.90
2019-04-07T01:31:15.787Z,22.80
2019-04-07T01:33:45.318Z,24.07
2019-04-07T01:36:17.453Z,24.53
2019-04-07T01:38:47.455Z,23.33
2019-04-07T01:41:19.518Z,24.50
2019-04-07T01:43:57.527Z,24.03
2019-04-07T01:46:28.600Z,24.50
2019-04-07T01:49:06.663Z,23.83
2019-04-07T01:51:47.868Z,23.67
2019-04-07T01:54:33.657Z,24.13
2019-04-07T01:57:20.198Z,24.13
2019-04-07T01:59:51.952Z,24.00
2019-04-07T02:02:35.575Z,24.33
2019-04-07T02:05:25.352Z,23.83
2019-04-07T02:08:05.558Z,24.60
2019-04-07T02:10:42.922Z,24.57
2019-04-07T02:13:19.860Z,25.33
2019-04-07T02:15:57.725Z,24.33
2019-04-07T02:18:28.926Z,24.73
2019-04-07T02:21:00.096Z,23.90
2019-04-07T02:23:33.982Z,26.20
2019-04-07T02:26:06.043Z,24.87
2019-04-07T02:28:37.233Z,25.50
2019-04-07T02:31:25.863Z,25.23
2019-04-07T02:34:05.597Z,26.03
2019-04-07T02:36:37.574Z,25.77
2019-04-07T02:39:09.214Z,26.17
2019-04-07T02:41:40.437Z,27.73
2019-04-07T02:44:15.432Z,26.93
2019-04-07T02:46:49.635Z,29.03
2019-04-07T02:49:33.818Z,28.43
2019-04-07T02:52:11.127Z,29.50
2019-04-07T02:54:59.239Z,28.73
2019-04-07T02:57:36.556Z,33.90
2019-04-07T03:00:12.001Z,32.20
2019-04-07T03:02:55.835Z,31.20
2019-04-07T03:05:27.076Z,31.00
2019-04-07T03:07:58.299Z,29.73
2019-04-07T03:10:36.456Z,28.23
2019-04-07T03:13:14.514Z,28.40
2019-04-07T03:15:48.759Z,27.67
2019-04-07T03:18:20.216Z,27.70
2019-04-07T03:20:55.794Z,26.03
2019-04-07T03:23:32.959Z,26.90
2019-04-07T03:26:11.044Z,26.60
2019-04-07T03:28:47.945Z,26.80
2019-04-07T03:31:32.159Z,26.77
2019-04-07T03:34:06.119Z,27.13
2019-04-07T03:37:16.162Z,27.10
2019-04-07T03:39:24.481Z,25.70
2019-04-07T03:41:55.743Z,25.63
2019-04-07T03:44:29.648Z,27.57
2019-04-07T03:47:01.476Z,26.00
2019-04-07T03:49:41.965Z,27.20
2019-04-07T03:52:25.145Z,27.07
2019-04-07T03:55:02.284Z,26.13
2019-04-07T03:57:46.348Z,25.93
2019-04-07T04:01:11.563Z,26.27
2019-04-07T04:03:59.006Z,26.17
2019-04-07T04:06:47.246Z,26.30
2019-04-07T04:09:37.938Z,26.23
2019-04-07T04:12:22.813Z,26.13
2019-04-07T04:15:10.571Z,26.20
2019-04-07T04:17:40.093Z,25.57
2019-04-07T04:20:10.589Z,26.27
2019-04-07T04:22:40.254Z,26.73
2019-04-07T04:25:10.778Z,26.93
2019-04-07T04:27:41.965Z,27.30
2019-04-07T04:30:12.267Z,26.90
2019-04-07T04:32:42.102Z,27.37
2019-04-07T04:35:12.967Z,27.53
2019-04-07T04:37:48.117Z,27.43
2019-04-07T04:40:14.175Z,26.53
2019-04-07T04:42:44.340Z,27.00
2019-04-07T04:45:14.027Z,27.07
2019-04-07T04:47:43.469Z,27.43
2019-04-07T04:50:13.047Z,27.00
2019-04-07T04:52:42.822Z,26.63
2019-04-07T04:55:13.273Z,28.73
2019-04-07T04:57:42.775Z,27.30
2019-04-07T05:00:13.512Z,27.43
2019-04-07T05:02:44.181Z,28.10
2019-04-07T05:05:13.923Z,26.93
2019-04-07T05:07:54.019Z,26.40
2019-04-07T05:10:14.747Z,26.03
2019-04-07T05:12:44.603Z,27.33
2019-04-07T05:15:14.740Z,26.30
2019-04-07T05:17:44.586Z,28.20
2019-04-07T05:20:14.679Z,28.20
2019-04-07T05:22:44.493Z,28.20
2019-04-07T05:25:14.054Z,29.27
2019-04-07T05:27:43.443Z,27.13
2019-04-07T05:30:13.040Z,27.37
2019-04-07T05:32:43.125Z,28.03
2019-04-07T05:35:13.207Z,26.80
2019-04-07T05:37:43.326Z,26.67
2019-04-07T05:40:14.023Z,27.67
2019-04-07T05:42:43.490Z,26.10
2019-04-07T05:45:13.091Z,28.37
2019-04-07T05:47:47.320Z,27.20
2019-04-07T05:50:14.423Z,27.70
2019-04-07T05:52:44.509Z,27.77
2019-04-07T05:55:14.310Z,25.53
2019-04-07T05:57:44.202Z,27.73
2019-04-07T06:00:16.540Z,27.00
2019-04-07T06:02:45.786Z,26.53
2019-04-07T06:05:16.188Z,26.57
2019-04-07T06:07:47.011Z,27.93
2019-04-07T06:10:16.745Z,26.87
2019-04-07T06:12:47.366Z,26.10
2019-04-07T06:15:21.561Z,27.87
2019-04-07T06:17:49.083Z,27.37
2019-04-07T06:20:18.960Z,27.73
2019-04-07T06:22:52.837Z,27.80
2019-04-07T06:25:19.576Z,28.17
2019-04-07T06:27:49.073Z,27.73
2019-04-07T06:30:19.525Z,27.70
2019-04-07T06:32:49.020Z,27.67
2019-04-07T06:35:19.267Z,28.43
2019-04-07T06:37:49.916Z,29.83
2019-04-07T06:40:20.644Z,28.67
2019-04-07T06:42:50.605Z,28.70
2019-04-07T06:45:22.761Z,28.20
2019-04-07T06:47:55.237Z,28.40
2019-04-07T06:50:49.392Z,27.67
2019-04-07T06:53:18.641Z,29.20
2019-04-07T06:56:04.957Z,29.20
2019-04-07T06:58:51.489Z,28.47
2019-04-07T07:01:32.294Z,29.07
2019-04-07T07:04:22.295Z,27.80
2019-04-07T07:06:53.420Z,30.03
2019-04-07T07:09:26.428Z,28.57
2019-04-07T07:12:19.186Z,28.70
2019-04-07T07:14:58.369Z,29.00
2019-04-07T07:17:33.160Z,29.23
2019-04-07T07:20:05.683Z,27.20
2019-04-07T07:22:40.200Z,26.00
2019-04-07T07:25:10.337Z,27.67
2019-04-07T07:27:41.712Z,27.87
2019-04-07T07:30:11.045Z,28.20
2019-04-07T07:32:40.961Z,27.93
2019-04-07T07:35:15.006Z,28.63
2019-04-07T07:37:41.794Z,28.33
2019-04-07T07:40:12.383Z,26.90
2019-04-07T07:42:43.103Z,26.27
2019-04-07T07:45:14.006Z,26.90
2019-04-07T07:47:43.817Z,27.27
2019-04-07T07:50:13.611Z,27.63
2019-04-07T07:52:44.158Z,28.63
2019-04-07T07:55:14.253Z,26.90
2019-04-07T07:57:43.845Z,28.17
2019-04-07T08:00:13.711Z,28.33
2019-04-07T08:02:43.244Z,27.47
2019-04-07T08:05:13.445Z,27.83
2019-04-07T08:07:46.804Z,26.60
2019-04-07T08:10:15.735Z,27.43
2019-04-07T08:12:47.216Z,26.57
2019-04-07T08:15:22.852Z,27.10
2019-04-07T08:17:50.931Z,25.53
2019-04-07T08:20:22.044Z,25.63
2019-04-07T08:22:51.607Z,25.67
2019-04-07T08:25:25.052Z,26.73
2019-04-07T08:27:55.412Z,26.50
2019-04-07T08:30:25.058Z,26.43
2019-04-07T08:32:57.654Z,25.90
2019-04-07T08:35:25.894Z,25.93
2019-04-07T08:37:55.633Z,26.67
2019-04-07T08:40:25.309Z,27.37
2019-04-07T08:42:55.068Z,25.57
2019-04-07T08:45:26.710Z,26.33
2019-04-07T08:47:55.730Z,26.70
2019-04-07T08:50:27.710Z,25.57
2019-04-07T08:52:56.456Z,27.07
2019-04-07T08:55:25.983Z,27.30
2019-04-07T08:57:56.194Z,26.77
2019-04-07T09:00:28.306Z,27.07
2019-04-07T09:03:03.903Z,27.33
2019-04-07T09:05:31.098Z,26.97
2019-04-07T09:08:03.589Z,26.87
2019-04-07T09:10:51.414Z,27.33
2019-04-07T09:13:20.913Z,26.37
2019-04-07T09:16:04.655Z,28.10
2019-04-07T09:18:57.787Z,26.73
2019-04-07T09:21:38.660Z,26.30
2019-04-07T09:24:18.181Z,24.70
2019-04-07T09:26:58.834Z,26.33
2019-04-07T09:29:31.237Z,25.70
2019-04-07T09:32:11.966Z,24.77
2019-04-07T09:34:43.140Z,24.47
2019-04-07T09:37:22.100Z,22.73
2019-04-07T09:40:09.372Z,23.03
2019-04-07T09:42:46.656Z,22.53
2019-04-07T09:45:29.929Z,23.40
2019-04-07T09:48:02.061Z,21.17
2019-04-07T09:50:33.505Z,21.70
2019-04-07T09:53:07.313Z,20.32
2019-04-07T09:55:38.415Z,20.90
2019-04-07T09:58:25.180Z,21.10
2019-04-07T10:01:07.803Z,18.67
2019-04-07T10:03:55.592Z,18.35
2019-04-07T10:06:26.841Z,18.10
2019-04-07T10:09:01.085Z,17.83
2019-04-07T10:11:39.671Z,18.27
2019-04-07T10:14:10.848Z,16.77
2019-04-07T10:16:50.789Z,16.95
2019-04-07T10:19:39.730Z,15.80
2019-04-07T10:22:13.998Z,16.13
2019-04-07T10:24:48.309Z,17.25
2019-04-07T10:27:28.617Z,18.37
2019-04-07T10:30:03.557Z,18.40
2019-04-07T10:32:34.775Z,18.85
2019-04-07T10:35:11.275Z,17.02
2019-04-07T10:37:50.995Z,17.10
2019-04-07T10:40:34.748Z,16.97
2019-04-07T10:43:25.028Z,16.62
2019-04-07T10:46:02.411Z,15.45
2019-04-07T10:48:48.587Z,16.87
2019-04-07T10:51:28.520Z,15.53
2019-04-07T10:54:00.399Z,15.13
2019-04-07T10:56:48.019Z,16.00
2019-04-07T10:59:20.966Z,16.80
2019-04-07T11:02:08.334Z,17.37
2019-04-07T11:04:51.815Z,17.05
2019-04-07T11:07:26.647Z,15.10
2019-04-07T11:10:07.110Z,15.93
2019-04-07T11:12:41.276Z,17.60
2019-04-07T11:15:27.571Z,17.80
2019-04-07T11:18:04.727Z,16.70
2019-04-07T11:20:39.016Z,16.62
2019-04-07T11:23:19.142Z,17.25
2019-04-07T11:26:03.650Z,16.50
2019-04-07T11:28:37.988Z,16.62
2019-04-07T11:31:09.376Z,15.90
2019-04-07T11:33:50.322Z,16.37
2019-04-07T11:36:31.036Z,15.95
2019-04-07T11:39:13.217Z,15.28
2019-04-07T11:41:51.486Z,15.70
2019-04-07T11:44:32.271Z,16.40
2019-04-07T11:47:08.848Z,15.90
2019-04-07T11:49:44.716Z,16.93
2019-04-07T11:52:30.986Z,16.12
2019-04-07T11:55:18.434Z,16.17
2019-04-07T11:58:03.013Z,16.17
2019-04-07T12:00:23.748Z,15.80
2019-04-07T12:03:03.949Z,16.97
2019-04-07T12:05:44.161Z,17.42
2019-04-07T12:08:36.052Z,17.52
2019-04-07T12:11:06.248Z,18.32
2019-04-07T12:13:37.436Z,17.48
2019-04-07T12:16:18.462Z,16.65
2019-04-07T12:19:09.447Z,17.27
2019-04-07T12:21:49.375Z,16.85
2019-04-07T12:24:24.663Z,17.50
2019-04-07T12:27:10.857Z,18.73
2019-04-07T12:29:41.697Z,18.60
2019-04-07T12:32:15.899Z,18.15
2019-04-07T12:34:56.643Z,17.98
2019-04-07T12:37:44.595Z,17.05
2019-04-07T12:40:22.988Z,17.52
2019-04-07T12:43:13.204Z,17.32
2019-04-07T12:45:43.700Z,16.65
2019-04-07T12:48:19.616Z,18.10
2019-04-07T12:50:57.344Z,16.60
2019-04-07T12:53:36.124Z,16.20
2019-04-07T12:56:08.054Z,14.63
2019-04-07T12:58:44.047Z,15.93
2019-04-07T13:01:17.550Z,15.90
2019-04-07T13:03:47.284Z,17.42
2019-04-07T13:06:35.196Z,16.77
2019-04-07T13:09:28.967Z,17.70
2019-04-07T13:12:06.556Z,17.25
2019-04-07T13:14:42.797Z,16.35
2019-04-07T13:17:34.159Z,16.40
2019-04-07T13:20:02.424Z,17.17
2019-04-07T13:22:39.390Z,16.42
2019-04-07T13:25:29.264Z,15.50
2019-04-07T13:28:00.321Z,15.70
2019-04-07T13:30:44.462Z,14.45
2019-04-07T13:33:30.602Z,14.63
2019-04-07T13:36:18.505Z,14.87
2019-04-07T13:39:06.619Z,13.88
2019-04-07T13:41:44.230Z,13.05
2019-04-07T13:44:10.788Z,12.65
2019-04-07T13:47:00.613Z,14.58
2019-04-07T13:49:33.195Z,13.88
2019-04-07T13:52:19.329Z,14.58
2019-04-07T13:54:54.779Z,13.65
2019-04-07T13:57:34.963Z,12.60
2019-04-07T14:00:16.005Z,13.30
2019-04-07T14:02:53.346Z,14.20
2019-04-07T14:05:30.415Z,14.95
2019-04-07T14:08:17.918Z,13.53
2019-04-07T14:10:49.278Z,14.38
2019-04-07T14:13:23.254Z,12.88
2019-04-07T14:15:56.478Z,13.13
2019-04-07T14:18:27.805Z,13.70
2019-04-07T14:21:15.752Z,13.53
2019-04-07T14:23:55.540Z,12.88
2019-04-07T14:26:34.621Z,13.13
2019-04-07T14:29:19.510Z,12.88
2019-04-07T14:32:02.080Z,12.43
2019-04-07T14:34:49.882Z,11.78
2019-04-07T14:37:21.779Z,12.20
2019-04-07T14:39:56.651Z,11.75
2019-04-07T14:42:37.225Z,11.68
2019-04-07T14:45:09.551Z,11.50
2019-04-07T14:47:53.523Z,10.03
2019-04-07T14:50:25.308Z,10.88
2019-04-07T14:53:13.167Z,11.43
2019-04-07T14:55:53.143Z,11.18
2019-04-07T14:58:28.110Z,10.80
2019-04-07T15:01:08.452Z,10.75
2019-04-07T15:03:41.010Z,11.88
2019-04-07T15:06:10.894Z,11.30
2019-04-07T15:08:44.251Z,11.93
2019-04-07T15:11:25.007Z,11.40
2019-04-07T15:13:57.899Z,10.23
2019-04-07T15:16:27.383Z,9.95
2019-04-07T15:18:58.701Z,10.78
2019-04-07T15:21:28.261Z,10.38
2019-04-07T15:24:04.667Z,10.70
2019-04-07T15:26:34.692Z,11.70
2019-04-07T15:29:09.261Z,11.22
2019-04-07T15:31:37.450Z,11.38
2019-04-07T15:34:09.514Z,11.73
2019-04-07T15:36:38.611Z,11.68
2019-04-07T15:39:09.801Z,11.15
2019-04-07T15:41:42.503Z,11.05
2019-04-07T15:44:14.000Z,10.50
2019-04-07T15:46:42.657Z,10.93
2019-04-07T15:49:13.408Z,11.57
2019-04-07T15:51:43.252Z,12.43
2019-04-07T15:54:13.521Z,12.43
2019-04-07T15:56:48.078Z,12.73
2019-04-07T15:59:18.753Z,11.88
2019-04-07T16:01:50.012Z,11.83
2019-04-07T16:04:25.186Z,12.20
2019-04-07T16:06:51.578Z,12.45
2019-04-07T16:09:35.923Z,11.40
2019-04-07T16:11:57.453Z,11.68
2019-04-07T16:14:26.338Z,11.78
2019-04-07T16:16:59.611Z,12.28
2019-04-07T16:19:37.248Z,11.93
2019-04-07T16:22:00.022Z,11.78
2019-04-07T16:24:32.643Z,11.75
2019-04-07T16:27:05.181Z,11.83
2019-04-07T16:29:35.202Z,10.58
2019-04-07T16:32:04.875Z,12.28
2019-04-07T16:34:34.884Z,11.03
2019-04-07T16:37:06.808Z,11.68
2019-04-07T16:39:36.403Z,11.28
2019-04-07T16:42:06.478Z,10.93
2019-04-07T16:44:37.596Z,11.33
2019-04-07T16:47:17.680Z,11.22
2019-04-07T16:49:41.355Z,11.57
2019-04-07T16:52:10.159Z,11.15
2019-04-07T16:54:43.489Z,10.73
2019-04-07T16:57:11.201Z,10.80
2019-04-07T16:59:43.011Z,11.50
2019-04-07T17:02:14.507Z,11.33
2019-04-07T17:04:47.377Z,11.10
2019-04-07T17:07:21.113Z,11.80
2019-04-07T17:09:49.590Z,11.50
2019-04-07T17:12:19.238Z,10.47
2019-04-07T17:14:49.416Z,11.20
2019-04-07T17:17:21.711Z,11.60
2019-04-07T17:19:52.185Z,10.97
2019-04-07T17:22:21.733Z,10.63
2019-04-07T17:24:58.325Z,10.60
2019-04-07T17:27:27.877Z,11.00
2019-04-07T17:30:00.535Z,10.73
2019-04-07T17:32:33.074Z,10.03
2019-04-07T17:35:02.877Z,11.27
2019-04-07T17:37:32.352Z,10.10
2019-04-07T17:40:11.286Z,11.00
2019-04-07T17:42:39.843Z,10.47
2019-04-07T17:45:27.558Z,10.03
2019-04-07T17:48:06.886Z,10.50
2019-04-07T17:50:44.358Z,9.80
2019-04-07T17:53:17.439Z,10.20
2019-04-07T17:55:57.183Z,11.00
2019-04-07T17:58:38.134Z,10.20
2019-04-07T18:01:08.993Z,10.53
2019-04-07T18:03:49.671Z,10.57
2019-04-07T18:06:33.477Z,10.23
2019-04-07T18:09:12.292Z,9.87
2019-04-07T18:11:44.798Z,10.30
2019-04-07T18:14:18.096Z,9.83
2019-04-07T18:17:00.823Z,10.30
2019-04-07T18:19:36.128Z,9.60
2019-04-07T18:22:24.764Z,9.33
2019-04-07T18:25:01.864Z,9.63
2019-04-07T18:27:34.181Z,10.20
2019-04-07T18:30:08.303Z,10.07
2019-04-07T18:32:46.785Z,9.97
2019-04-07T18:35:34.775Z,9.23
2019-04-07T18:38:19.352Z,9.77
2019-04-07T18:41:01.030Z,9.80
2019-04-07T18:43:49.122Z,9.07
2019-04-07T18:46:16.823Z,10.00
2019-04-07T18:48:56.400Z,8.67
2019-04-07T18:51:47.063Z,9.60
2019-04-07T18:54:33.570Z,10.60
2019-04-07T18:57:11.886Z,9.07
2019-04-07T18:59:59.420Z,9.47
2019-04-07T19:02:33.273Z,10.47
2019-04-07T19:05:05.101Z,8.80
2019-04-07T19:07:37.906Z,8.97
2019-04-07T19:10:17.677Z,9.33
2019-04-07T19:13:10.993Z,9.50
2019-04-07T19:15:42.139Z,9.97
2019-04-07T19:18:31.281Z,9.30
2019-04-07T19:21:18.351Z,9.60
2019-04-07T19:24:08.017Z,10.30
2019-04-07T19:26:49.809Z,9.93
2019-04-07T19:29:33.722Z,9.83
2019-04-07T19:32:17.945Z,9.97
2019-04-07T19:34:57.320Z,9.77
2019-04-07T19:37:40.758Z,9.70
2019-04-07T19:40:19.150Z,9.60
2019-04-07T19:42:56.358Z,9.67
2019-04-07T19:45:43.774Z,9.67
2019-04-07T19:48:31.152Z,9.63
2019-04-07T19:51:05.086Z,9.63
2019-04-07T19:53:36.657Z,9.97
2019-04-07T19:56:16.777Z,10.20
2019-04-07T19:58:51.622Z,9.93
2019-04-07T20:01:23.382Z,9.50
2019-04-07T20:04:13.001Z,10.70
2019-04-07T20:06:44.211Z,10.57
2019-04-07T20:09:32.122Z,9.53
2019-04-07T20:12:18.460Z,9.87
2019-04-07T20:15:01.385Z,10.03
2019-04-07T20:17:31.073Z,10.27
2019-04-07T20:20:12.294Z,9.80
2019-04-07T20:23:00.333Z,10.00
2019-04-07T20:25:37.599Z,10.83
2019-04-07T20:28:08.967Z,10.73
2019-04-07T20:30:51.150Z,10.83
2019-04-07T20:33:21.671Z,10.83
2019-04-07T20:36:02.334Z,10.57
2019-04-07T20:38:33.737Z,11.03
2019-04-07T20:41:05.378Z,11.17
2019-04-07T20:43:48.648Z,11.43
2019-04-07T20:46:23.970Z,11.97
2019-04-07T20:49:13.636Z,12.70
2019-04-07T20:52:03.036Z,12.80
2019-04-07T20:54:35.408Z,12.47
2019-04-07T20:57:07.210Z,12.30
2019-04-07T20:59:50.155Z,12.27
2019-04-07T21:02:30.290Z,12.10
2019-04-07T21:05:05.230Z,11.83
2019-04-07T21:07:39.694Z,11.10
2019-04-07T21:10:13.556Z,11.97
2019-04-07T21:12:50.776Z,12.10
2019-04-07T21:15:32.367Z,13.03
2019-04-07T21:18:04.165Z,12.57
2019-04-07T21:20:36.728Z,12.60
2019-04-07T21:23:08.120Z,12.03
2019-04-07T21:25:41.687Z,13.17
2019-04-07T21:28:12.757Z,12.33
2019-04-07T21:30:56.230Z,12.37
2019-04-07T21:33:30.019Z,11.40
2019-04-07T21:36:10.496Z,11.63
2019-04-07T21:38:45.349Z,13.00
2019-04-07T21:41:16.858Z,13.60
2019-04-07T21:44:04.641Z,12.93
2019-04-07T21:46:44.659Z,13.17
2019-04-07T21:49:22.031Z,13.70
2019-04-07T21:51:55.721Z,14.33
2019-04-07T21:54:43.890Z,13.00
2019-04-07T21:57:15.236Z,13.23
2019-04-07T21:59:52.290Z,13.77
2019-04-07T22:02:32.170Z,12.90
2019-04-07T22:05:15.675Z,13.60
2019-04-07T22:07:46.834Z,13.50
2019-04-07T22:10:19.442Z,13.13
2019-04-07T22:12:48.705Z,13.33
2019-04-07T22:15:18.227Z,13.10
2019-04-07T22:17:47.901Z,13.87
2019-04-07T22:20:20.106Z,13.37
2019-04-07T22:22:51.848Z,13.60
2019-04-07T22:25:32.736Z,13.83
2019-04-07T22:28:02.230Z,13.17
2019-04-07T22:30:33.975Z,13.10
2019-04-07T22:33:04.182Z,14.40
2019-04-07T22:35:34.492Z,14.40
2019-04-07T22:38:05.222Z,14.27
2019-04-07T22:40:37.963Z,13.73
2019-04-07T22:43:05.874Z,14.77
2019-04-07T22:45:35.467Z,12.77
2019-04-07T22:48:08.121Z,13.30
2019-04-07T22:50:38.230Z,13.23
2019-04-07T22:53:09.383Z,13.43
2019-04-07T22:55:39.976Z,14.13
2019-04-07T22:58:09.554Z,13.67
2019-04-07T23:00:40.351Z,13.30
2019-04-07T23:03:12.000Z,13.73
2019-04-07T23:05:41.641Z,13.20
2019-04-07T23:08:11.212Z,13.47
2019-04-07T23:10:40.844Z,13.23
2019-04-07T23:13:11.027Z,12.93
2019-04-07T23:15:45.539Z,13.70
2019-04-07T23:18:12.028Z,13.67
2019-04-07T23:20:41.777Z,13.87
2019-04-07T23:23:11.338Z,13.43
2019-04-07T23:25:40.766Z,13.20
2019-04-07T23:28:10.367Z,12.40
2019-04-07T23:30:40.850Z,13.47
2019-04-07T23:33:10.476Z,12.63
2019-04-07T23:35:39.939Z,14.33
2019-04-07T23:38:09.390Z,13.60
2019-04-07T23:40:39.808Z,13.50
2019-04-07T23:43:09.355Z,13.90
2019-04-07T23:45:38.774Z,13.23
2019-04-07T23:48:08.407Z,13.90
2019-04-07T23:50:37.791Z,14.17
2019-04-07T23:53:43.719Z,14.03
2019-04-07T23:56:13.134Z,14.27
2019-04-07T23:58:43.438Z,14.67
